EWG2256 LGKF-LGSM
Flight info
| Callsign | EWG2256 |
|---|---|
| Flight time | N/A |
| Altitude | 31000 |
| Route | ARA DCT KOR DCT ATV DCT KRO DCT MES DCT URNIL |
| Aircraft | A320/M-SDE3FGHIRWY/LB1 |
Departure
| Time | 2026-04-21 15:01 |
|---|---|
| Airport | Kefallinia Airport (LGKF) |
Arrival
| Time | N/A |
|---|---|
| Airport | Samos Airport (LGSM) |
| Time | Latitude | Longitude | Altitude | Speed | Heading |
|---|---|---|---|---|---|
| 2026-04-21 14:44 | 38.11822 | 20.50473 | 68 ft | 0 kts | 56° |
| 2026-04-21 14:55 | 38.11816 | 20.50460 | 60 ft | 4 kts | 60° |
| 2026-04-21 14:56 | 38.11804 | 20.50429 | 66 ft | 4 kts | 73° |
| 2026-04-21 14:56 | 38.11799 | 20.50395 | 64 ft | 4 kts | 84° |
| 2026-04-21 14:56 | 38.11796 | 20.50366 | 59 ft | 1 kts | 79° |
| 2026-04-21 14:56 | 38.11795 | 20.50361 | 60 ft | 0 kts | 79° |
| 2026-04-21 14:58 | 38.11796 | 20.50362 | 59 ft | 2 kts | 76° |
| 2026-04-21 14:58 | 38.11857 | 20.50335 | 64 ft | 15 kts | 321° |
| 2026-04-21 14:58 | 38.11896 | 20.50238 | 64 ft | 13 kts | 254° |
| 2026-04-21 14:58 | 38.11926 | 20.50105 | 62 ft | 25 kts | 322° |
| 2026-04-21 14:59 | 38.12116 | 20.49948 | 62 ft | 40 kts | 326° |
| 2026-04-21 14:59 | 38.12382 | 20.49723 | 56 ft | 48 kts | 327° |
| 2026-04-21 14:59 | 38.12660 | 20.49493 | 48 ft | 48 kts | 326° |
| 2026-04-21 14:59 | 38.12841 | 20.49331 | 41 ft | 20 kts | 301° |
| 2026-04-21 15:00 | 38.12905 | 20.49277 | 38 ft | 11 kts | 60° |
| 2026-04-21 15:00 | 38.12848 | 20.49339 | 41 ft | 22 kts | 147° |
| 2026-04-21 15:00 | 38.12498 | 20.49631 | 55 ft | 94 kts | 146° |
| 2026-04-21 15:00 | 38.11787 | 20.50229 | 68 ft | 148 kts | 146° |
| 2026-04-21 15:01 | 38.10879 | 20.50996 | 607 ft | 154 kts | 147° |
| 2026-04-21 15:01 | 38.09990 | 20.51760 | 1280 ft | 160 kts | 147° |
| 2026-04-21 15:01 | 38.09036 | 20.52606 | 1717 ft | 176 kts | 148° |
| 2026-04-21 15:01 | 38.07953 | 20.53548 | 2045 ft | 200 kts | 147° |
| 2026-04-21 15:02 | 38.06759 | 20.54584 | 2509 ft | 217 kts | 147° |
| 2026-04-21 15:02 | 38.05491 | 20.55684 | 3204 ft | 223 kts | 147° |
| 2026-04-21 15:02 | 38.04197 | 20.56808 | 3941 ft | 228 kts | 147° |
| 2026-04-21 15:02 | 38.02875 | 20.57956 | 4670 ft | 233 kts | 148° |
| 2026-04-21 15:03 | 38.01540 | 20.59109 | 5382 ft | 236 kts | 148° |
| 2026-04-21 15:03 | 38.00172 | 20.60294 | 6131 ft | 240 kts | 147° |
| 2026-04-21 15:03 | 37.98889 | 20.61836 | 6488 ft | 267 kts | 129° |
| 2026-04-21 15:03 | 37.97972 | 20.63959 | 6907 ft | 287 kts | 109° |
| 2026-04-21 15:04 | 37.97608 | 20.66493 | 7614 ft | 295 kts | 90° |
| 2026-04-21 15:04 | 37.97888 | 20.69054 | 8398 ft | 299 kts | 71° |
| 2026-04-21 15:04 | 37.98708 | 20.71494 | 9206 ft | 301 kts | 61° |
| 2026-04-21 15:04 | 37.99528 | 20.73971 | 9992 ft | 307 kts | 70° |
| 2026-04-21 15:05 | 38.00152 | 20.76634 | 10416 ft | 325 kts | 74° |
| 2026-04-21 15:05 | 38.01351 | 20.82541 | 10972 ft | 365 kts | 74° |
| 2026-04-21 15:05 | 38.02028 | 20.85696 | 11588 ft | 371 kts | 72° |
| 2026-04-21 15:06 | 38.02747 | 20.88834 | 12245 ft | 376 kts | 71° |
| 2026-04-21 15:06 | 38.03515 | 20.92026 | 12905 ft | 381 kts | 71° |
| 2026-04-21 15:06 | 38.04314 | 20.95269 | 13571 ft | 385 kts | 70° |
| 2026-04-21 15:06 | 38.05120 | 20.98513 | 14177 ft | 390 kts | 70° |
| 2026-04-21 15:07 | 38.05939 | 21.01814 | 14784 ft | 394 kts | 70° |
| 2026-04-21 15:07 | 38.06762 | 21.05157 | 15379 ft | 397 kts | 70° |
| 2026-04-21 15:07 | 38.07586 | 21.08534 | 15979 ft | 401 kts | 70° |
| 2026-04-21 15:07 | 38.08404 | 21.11901 | 16568 ft | 405 kts | 70° |
| 2026-04-21 15:08 | 38.09237 | 21.15339 | 17130 ft | 409 kts | 70° |
| 2026-04-21 15:08 | 38.10081 | 21.18823 | 17679 ft | 413 kts | 70° |
| 2026-04-21 15:08 | 38.10923 | 21.22295 | 18242 ft | 417 kts | 70° |
| 2026-04-21 15:08 | 38.11782 | 21.25832 | 18730 ft | 420 kts | 70° |
| 2026-04-21 15:09 | 38.12650 | 21.29414 | 19229 ft | 423 kts | 70° |
| 2026-04-21 15:09 | 38.13509 | 21.32977 | 19707 ft | 426 kts | 70° |
| 2026-04-21 15:09 | 38.14382 | 21.36612 | 20198 ft | 429 kts | 70° |
| 2026-04-21 15:09 | 38.15123 | 21.40298 | 20673 ft | 434 kts | 78° |
| 2026-04-21 15:10 | 38.15398 | 21.44149 | 21136 ft | 439 kts | 89° |
| 2026-04-21 15:10 | 38.15166 | 21.47993 | 21595 ft | 443 kts | 99° |
| 2026-04-21 15:10 | 38.14598 | 21.51850 | 22055 ft | 445 kts | 100° |
| 2026-04-21 15:10 | 38.14024 | 21.55739 | 22511 ft | 448 kts | 100° |
| 2026-04-21 15:11 | 38.13454 | 21.59624 | 22960 ft | 451 kts | 100° |
| 2026-04-21 15:11 | 38.12878 | 21.63577 | 23403 ft | 454 kts | 100° |
| 2026-04-21 15:11 | 38.12310 | 21.67493 | 23791 ft | 456 kts | 100° |
| 2026-04-21 15:11 | 38.11729 | 21.71482 | 24162 ft | 459 kts | 100° |
| 2026-04-21 15:12 | 38.11138 | 21.75494 | 24535 ft | 461 kts | 100° |
| 2026-04-21 15:12 | 38.10541 | 21.79502 | 24901 ft | 463 kts | 100° |
| 2026-04-21 15:12 | 38.09946 | 21.83498 | 25254 ft | 465 kts | 100° |
| 2026-04-21 15:12 | 38.09340 | 21.87568 | 25609 ft | 467 kts | 100° |
| 2026-04-21 15:13 | 38.08937 | 21.90268 | 25838 ft | 469 kts | 100° |
| 2026-04-21 15:13 | 38.08325 | 21.94344 | 26191 ft | 471 kts | 101° |
| 2026-04-21 15:13 | 38.07512 | 21.99782 | 26630 ft | 473 kts | 101° |
| 2026-04-21 15:13 | 38.07103 | 22.02524 | 26827 ft | 475 kts | 100° |
| 2026-04-21 15:14 | 38.06484 | 22.06665 | 27154 ft | 477 kts | 100° |
| 2026-04-21 15:14 | 38.05857 | 22.10829 | 27491 ft | 480 kts | 100° |
| 2026-04-21 15:14 | 38.05228 | 22.14990 | 27786 ft | 482 kts | 101° |
| 2026-04-21 15:14 | 38.04598 | 22.19154 | 28097 ft | 484 kts | 101° |
| 2026-04-21 15:15 | 38.03959 | 22.23362 | 28370 ft | 486 kts | 101° |
| 2026-04-21 15:15 | 38.03312 | 22.27603 | 28660 ft | 489 kts | 101° |
| 2026-04-21 15:15 | 38.02664 | 22.31837 | 28951 ft | 490 kts | 101° |
| 2026-04-21 15:15 | 38.02012 | 22.36087 | 29233 ft | 492 kts | 101° |
| 2026-04-21 15:16 | 38.01357 | 22.40337 | 29505 ft | 494 kts | 101° |
| 2026-04-21 15:16 | 38.00695 | 22.44625 | 29770 ft | 496 kts | 101° |
| 2026-04-21 15:16 | 38.00029 | 22.48944 | 30049 ft | 497 kts | 101° |
| 2026-04-21 15:16 | 37.99363 | 22.53246 | 30364 ft | 497 kts | 101° |
| 2026-04-21 15:17 | 37.98695 | 22.57545 | 30726 ft | 496 kts | 101° |
| 2026-04-21 15:17 | 37.98025 | 22.61846 | 30903 ft | 496 kts | 101° |
| 2026-04-21 15:17 | 37.96705 | 22.70333 | 30944 ft | 489 kts | 101° |
| 2026-04-21 15:18 | 37.95385 | 22.78793 | 30928 ft | 488 kts | 101° |
| 2026-04-21 15:18 | 37.94068 | 22.87125 | 30934 ft | 484 kts | 101° |
| 2026-04-21 15:19 | 37.92957 | 22.95534 | 30935 ft | 483 kts | 92° |
| 2026-04-21 15:19 | 37.92594 | 23.04034 | 30954 ft | 483 kts | 92° |
| 2026-04-21 15:20 | 37.92200 | 23.12525 | 30916 ft | 484 kts | 93° |
| 2026-04-21 15:20 | 37.91796 | 23.21062 | 30918 ft | 484 kts | 93° |
| 2026-04-21 15:21 | 37.91396 | 23.29538 | 30924 ft | 484 kts | 93° |
| 2026-04-21 15:21 | 37.90982 | 23.38088 | 30927 ft | 484 kts | 93° |
| 2026-04-21 15:22 | 37.90572 | 23.46559 | 30927 ft | 484 kts | 93° |
| 2026-04-21 15:22 | 37.90158 | 23.55102 | 30928 ft | 485 kts | 93° |